sensor_id;sensor_type;location;lat;lon;timestamp;P1;durP1;ratioP1;P2;durP2;ratioP2
57335;SDS011;43171;50.994;18.204;2022-07-15T00:02:24;6.70;;;3.50;;
57335;SDS011;43171;50.994;18.204;2022-07-15T00:05:09;7.40;;;3.30;;
57335;SDS011;43171;50.994;18.204;2022-07-15T00:07:53;7.70;;;3.70;;
57335;SDS011;43171;50.994;18.204;2022-07-15T00:10:37;7.30;;;3.90;;
57335;SDS011;43171;50.994;18.204;2022-07-15T00:13:21;6.50;;;3.40;;
57335;SDS011;43171;50.994;18.204;2022-07-15T00:16:07;6.80;;;3.00;;
57335;SDS011;43171;50.994;18.204;2022-07-15T00:18:51;6.20;;;3.20;;
57335;SDS011;43171;50.994;18.204;2022-07-15T00:21:35;7.00;;;3.10;;
57335;SDS011;43171;50.994;18.204;2022-07-15T00:24:19;5.40;;;3.00;;
57335;SDS011;43171;50.994;18.204;2022-07-15T00:27:03;5.20;;;3.00;;
57335;SDS011;43171;50.994;18.204;2022-07-15T00:29:48;5.00;;;2.90;;
57335;SDS011;43171;50.994;18.204;2022-07-15T00:32:32;7.90;;;3.10;;
57335;SDS011;43171;50.994;18.204;2022-07-15T00:35:16;4.90;;;3.10;;
57335;SDS011;43171;50.994;18.204;2022-07-15T00:38:00;6.90;;;2.80;;
57335;SDS011;43171;50.994;18.204;2022-07-15T00:40:45;6.50;;;2.60;;
57335;SDS011;43171;50.994;18.204;2022-07-15T00:43:30;4.60;;;2.80;;
57335;SDS011;43171;50.994;18.204;2022-07-15T00:46:18;6.10;;;2.50;;
57335;SDS011;43171;50.994;18.204;2022-07-15T00:49:03;7.80;;;2.70;;
57335;SDS011;43171;50.994;18.204;2022-07-15T00:51:52;7.40;;;2.50;;
57335;SDS011;43171;50.994;18.204;2022-07-15T00:54:38;5.30;;;2.60;;
57335;SDS011;43171;50.994;18.204;2022-07-15T00:57:23;5.80;;;2.60;;
57335;SDS011;43171;50.994;18.204;2022-07-15T01:00:07;6.30;;;2.50;;
57335;SDS011;43171;50.994;18.204;2022-07-15T01:02:55;6.20;;;2.60;;
57335;SDS011;43171;50.994;18.204;2022-07-15T01:05:41;6.00;;;2.90;;
57335;SDS011;43171;50.994;18.204;2022-07-15T01:08:25;7.20;;;2.40;;
57335;SDS011;43171;50.994;18.204;2022-07-15T01:11:09;6.80;;;2.60;;
57335;SDS011;43171;50.994;18.204;2022-07-15T01:13:53;6.70;;;2.70;;
57335;SDS011;43171;50.994;18.204;2022-07-15T01:16:38;6.20;;;2.40;;
57335;SDS011;43171;50.994;18.204;2022-07-15T01:19:22;7.00;;;2.30;;
57335;SDS011;43171;50.994;18.204;2022-07-15T01:22:06;8.60;;;2.40;;
57335;SDS011;43171;50.994;18.204;2022-07-15T01:24:51;5.00;;;2.20;;
57335;SDS011;43171;50.994;18.204;2022-07-15T01:27:35;5.80;;;2.40;;
57335;SDS011;43171;50.994;18.204;2022-07-15T01:30:19;5.70;;;2.50;;
57335;SDS011;43171;50.994;18.204;2022-07-15T01:33:03;7.70;;;2.30;;
57335;SDS011;43171;50.994;18.204;2022-07-15T01:35:47;7.70;;;2.30;;
57335;SDS011;43171;50.994;18.204;2022-07-15T01:38:32;6.60;;;2.50;;
57335;SDS011;43171;50.994;18.204;2022-07-15T01:41:16;5.40;;;1.90;;
57335;SDS011;43171;50.994;18.204;2022-07-15T01:44:00;6.70;;;2.40;;
57335;SDS011;43171;50.994;18.204;2022-07-15T01:46:44;4.40;;;2.10;;
57335;SDS011;43171;50.994;18.204;2022-07-15T01:49:28;4.60;;;2.10;;
57335;SDS011;43171;50.994;18.204;2022-07-15T01:52:15;4.70;;;2.00;;
57335;SDS011;43171;50.994;18.204;2022-07-15T01:54:59;5.00;;;2.10;;
57335;SDS011;43171;50.994;18.204;2022-07-15T01:57:43;5.80;;;1.90;;
57335;SDS011;43171;50.994;18.204;2022-07-15T02:00:27;4.00;;;2.10;;
57335;SDS011;43171;50.994;18.204;2022-07-15T02:03:12;6.30;;;2.10;;
57335;SDS011;43171;50.994;18.204;2022-07-15T02:05:57;6.50;;;2.20;;
57335;SDS011;43171;50.994;18.204;2022-07-15T02:08:41;5.70;;;2.00;;
57335;SDS011;43171;50.994;18.204;2022-07-15T02:11:25;6.40;;;1.90;;
57335;SDS011;43171;50.994;18.204;2022-07-15T02:14:10;5.20;;;1.90;;
57335;SDS011;43171;50.994;18.204;2022-07-15T02:16:56;4.80;;;2.40;;
57335;SDS011;43171;50.994;18.204;2022-07-15T02:19:40;4.90;;;1.80;;
57335;SDS011;43171;50.994;18.204;2022-07-15T02:22:24;4.70;;;2.20;;
57335;SDS011;43171;50.994;18.204;2022-07-15T02:25:08;5.50;;;2.00;;
57335;SDS011;43171;50.994;18.204;2022-07-15T02:27:54;5.00;;;2.10;;
57335;SDS011;43171;50.994;18.204;2022-07-15T02:30:40;4.20;;;2.00;;
57335;SDS011;43171;50.994;18.204;2022-07-15T02:33:25;5.20;;;1.80;;
57335;SDS011;43171;50.994;18.204;2022-07-15T02:36:10;4.90;;;2.00;;
57335;SDS011;43171;50.994;18.204;2022-07-15T02:38:55;5.20;;;1.90;;
57335;SDS011;43171;50.994;18.204;2022-07-15T02:41:39;5.80;;;1.90;;
57335;SDS011;43171;50.994;18.204;2022-07-15T02:44:23;5.50;;;1.90;;
57335;SDS011;43171;50.994;18.204;2022-07-15T02:47:08;3.40;;;1.70;;
57335;SDS011;43171;50.994;18.204;2022-07-15T02:49:52;5.60;;;1.90;;
57335;SDS011;43171;50.994;18.204;2022-07-15T02:52:36;3.90;;;2.20;;
57335;SDS011;43171;50.994;18.204;2022-07-15T02:55:20;5.00;;;2.30;;
57335;SDS011;43171;50.994;18.204;2022-07-15T02:58:04;5.70;;;2.20;;
57335;SDS011;43171;50.994;18.204;2022-07-15T03:00:48;6.70;;;2.30;;
57335;SDS011;43171;50.994;18.204;2022-07-15T03:03:33;4.30;;;2.10;;
57335;SDS011;43171;50.994;18.204;2022-07-15T03:06:17;5.00;;;2.30;;
57335;SDS011;43171;50.994;18.204;2022-07-15T03:09:02;5.30;;;1.90;;
57335;SDS011;43171;50.994;18.204;2022-07-15T03:11:46;6.00;;;2.50;;
57335;SDS011;43171;50.994;18.204;2022-07-15T03:14:30;6.80;;;2.50;;
57335;SDS011;43171;50.994;18.204;2022-07-15T03:17:14;5.10;;;2.20;;
57335;SDS011;43171;50.994;18.204;2022-07-15T03:19:58;5.00;;;2.10;;
57335;SDS011;43171;50.994;18.204;2022-07-15T03:22:42;4.10;;;1.90;;
57335;SDS011;43171;50.994;18.204;2022-07-15T03:25:29;5.70;;;2.10;;
57335;SDS011;43171;50.994;18.204;2022-07-15T03:28:14;5.60;;;2.00;;
57335;SDS011;43171;50.994;18.204;2022-07-15T04:15:20;4.70;;;1.90;;
57335;SDS011;43171;50.994;18.204;2022-07-15T04:18:04;5.50;;;2.00;;
57335;SDS011;43171;50.994;18.204;2022-07-15T04:20:48;4.30;;;2.00;;
57335;SDS011;43171;50.994;18.204;2022-07-15T04:23:32;5.90;;;1.90;;
57335;SDS011;43171;50.994;18.204;2022-07-15T04:26:16;5.60;;;2.00;;
57335;SDS011;43171;50.994;18.204;2022-07-15T04:29:00;5.00;;;2.20;;
57335;SDS011;43171;50.994;18.204;2022-07-15T04:31:44;4.00;;;1.90;;
57335;SDS011;43171;50.994;18.204;2022-07-15T04:34:43;5.10;;;1.80;;
57335;SDS011;43171;50.994;18.204;2022-07-15T04:37:27;5.10;;;1.80;;
57335;SDS011;43171;50.994;18.204;2022-07-15T04:40:13;4.40;;;1.70;;
57335;SDS011;43171;50.994;18.204;2022-07-15T04:54:10;3.80;;;1.80;;
57335;SDS011;43171;50.994;18.204;2022-07-15T04:56:54;3.40;;;1.60;;
57335;SDS011;43171;50.994;18.204;2022-07-15T04:59:38;3.00;;;1.40;;
57335;SDS011;43171;50.994;18.204;2022-07-15T05:02:22;4.80;;;1.60;;
57335;SDS011;43171;50.994;18.204;2022-07-15T05:05:09;4.40;;;1.70;;
57335;SDS011;43171;50.994;18.204;2022-07-15T05:07:54;4.20;;;1.60;;
57335;SDS011;43171;50.994;18.204;2022-07-15T05:10:50;3.90;;;1.40;;
57335;SDS011;43171;50.994;18.204;2022-07-15T05:20:35;5.10;;;2.00;;
57335;SDS011;43171;50.994;18.204;2022-07-15T05:23:19;9.50;;;5.10;;
57335;SDS011;43171;50.994;18.204;2022-07-15T05:29:10;5.70;;;2.10;;
57335;SDS011;43171;50.994;18.204;2022-07-15T05:31:54;8.80;;;5.20;;
57335;SDS011;43171;50.994;18.204;2022-07-15T05:34:38;7.50;;;4.00;;
57335;SDS011;43171;50.994;18.204;2022-07-15T05:37:22;4.10;;;2.10;;
57335;SDS011;43171;50.994;18.204;2022-07-15T05:40:08;7.10;;;3.30;;
57335;SDS011;43171;50.994;18.204;2022-07-15T05:43:10;3.30;;;2.20;;
57335;SDS011;43171;50.994;18.204;2022-07-15T05:45:54;3.70;;;1.30;;
57335;SDS011;43171;50.994;18.204;2022-07-15T05:48:38;6.50;;;1.60;;
57335;SDS011;43171;50.994;18.204;2022-07-15T05:51:23;4.20;;;0.80;;
57335;SDS011;43171;50.994;18.204;2022-07-15T05:54:07;2.80;;;0.80;;
57335;SDS011;43171;50.994;18.204;2022-07-15T05:59:57;2.30;;;1.00;;
57335;SDS011;43171;50.994;18.204;2022-07-15T06:02:41;1.90;;;0.60;;
57335;SDS011;43171;50.994;18.204;2022-07-15T06:05:26;6.10;;;3.50;;
57335;SDS011;43171;50.994;18.204;2022-07-15T06:08:10;6.20;;;3.30;;
57335;SDS011;43171;50.994;18.204;2022-07-15T06:11:01;2.20;;;1.20;;
57335;SDS011;43171;50.994;18.204;2022-07-15T06:13:45;4.00;;;1.80;;
57335;SDS011;43171;50.994;18.204;2022-07-15T06:16:32;2.80;;;1.00;;
57335;SDS011;43171;50.994;18.204;2022-07-15T06:19:25;3.30;;;0.90;;
57335;SDS011;43171;50.994;18.204;2022-07-15T06:22:13;3.10;;;1.10;;
57335;SDS011;43171;50.994;18.204;2022-07-15T06:25:04;2.50;;;0.50;;
57335;SDS011;43171;50.994;18.204;2022-07-15T06:27:58;2.10;;;0.70;;
57335;SDS011;43171;50.994;18.204;2022-07-15T06:30:42;3.50;;;0.80;;
57335;SDS011;43171;50.994;18.204;2022-07-15T06:33:39;2.00;;;0.90;;
57335;SDS011;43171;50.994;18.204;2022-07-15T06:36:23;1.90;;;0.60;;
57335;SDS011;43171;50.994;18.204;2022-07-15T06:39:17;2.50;;;0.70;;
57335;SDS011;43171;50.994;18.204;2022-07-15T06:42:04;4.10;;;2.20;;
57335;SDS011;43171;50.994;18.204;2022-07-15T06:44:48;3.60;;;1.20;;
57335;SDS011;43171;50.994;18.204;2022-07-15T06:47:33;3.20;;;1.50;;
57335;SDS011;43171;50.994;18.204;2022-07-15T06:50:24;3.30;;;0.90;;
57335;SDS011;43171;50.994;18.204;2022-07-15T06:53:08;2.00;;;0.70;;
57335;SDS011;43171;50.994;18.204;2022-07-15T06:55:52;6.40;;;1.30;;
57335;SDS011;43171;50.994;18.204;2022-07-15T06:58:40;3.20;;;0.70;;
57335;SDS011;43171;50.994;18.204;2022-07-15T07:01:24;3.00;;;0.80;;
57335;SDS011;43171;50.994;18.204;2022-07-15T07:04:08;2.10;;;0.60;;
57335;SDS011;43171;50.994;18.204;2022-07-15T07:06:55;2.10;;;0.60;;
57335;SDS011;43171;50.994;18.204;2022-07-15T07:09:51;3.00;;;0.80;;
57335;SDS011;43171;50.994;18.204;2022-07-15T07:12:42;2.10;;;0.60;;
57335;SDS011;43171;50.994;18.204;2022-07-15T07:15:32;6.30;;;3.60;;
57335;SDS011;43171;50.994;18.204;2022-07-15T07:18:16;6.10;;;1.90;;
57335;SDS011;43171;50.994;18.204;2022-07-15T07:21:04;3.00;;;1.20;;
57335;SDS011;43171;50.994;18.204;2022-07-15T07:23:48;3.10;;;1.30;;
57335;SDS011;43171;50.994;18.204;2022-07-15T07:26:36;4.30;;;1.40;;
57335;SDS011;43171;50.994;18.204;2022-07-15T07:29:24;4.20;;;1.00;;
57335;SDS011;43171;50.994;18.204;2022-07-15T07:35:18;2.00;;;0.70;;
57335;SDS011;43171;50.994;18.204;2022-07-15T07:38:15;1.80;;;0.70;;
57335;SDS011;43171;50.994;18.204;2022-07-15T07:41:11;4.00;;;0.80;;
57335;SDS011;43171;50.994;18.204;2022-07-15T07:43:55;2.40;;;0.70;;
57335;SDS011;43171;50.994;18.204;2022-07-15T07:46:52;7.40;;;0.90;;
57335;SDS011;43171;50.994;18.204;2022-07-15T07:49:48;2.00;;;0.60;;
57335;SDS011;43171;50.994;18.204;2022-07-15T07:52:42;3.40;;;0.70;;
57335;SDS011;43171;50.994;18.204;2022-07-15T07:58:42;2.70;;;0.60;;
57335;SDS011;43171;50.994;18.204;2022-07-15T08:01:26;4.20;;;1.00;;
57335;SDS011;43171;50.994;18.204;2022-07-15T08:04:10;6.80;;;2.50;;
57335;SDS011;43171;50.994;18.204;2022-07-15T08:06:55;2.00;;;0.90;;
57335;SDS011;43171;50.994;18.204;2022-07-15T08:09:39;3.00;;;0.70;;
57335;SDS011;43171;50.994;18.204;2022-07-15T08:12:23;4.20;;;0.80;;
57335;SDS011;43171;50.994;18.204;2022-07-15T08:15:08;2.00;;;0.60;;
57335;SDS011;43171;50.994;18.204;2022-07-15T08:21:37;2.40;;;0.80;;
57335;SDS011;43171;50.994;18.204;2022-07-15T08:31:22;1.50;;;0.80;;
57335;SDS011;43171;50.994;18.204;2022-07-15T08:34:07;4.40;;;0.80;;
57335;SDS011;43171;50.994;18.204;2022-07-15T08:36:51;4.00;;;0.80;;
57335;SDS011;43171;50.994;18.204;2022-07-15T08:39:48;3.60;;;1.50;;
57335;SDS011;43171;50.994;18.204;2022-07-15T08:42:36;2.40;;;0.80;;
57335;SDS011;43171;50.994;18.204;2022-07-15T08:46:05;3.10;;;0.90;;
57335;SDS011;43171;50.994;18.204;2022-07-15T08:52:14;4.20;;;1.00;;
57335;SDS011;43171;50.994;18.204;2022-07-15T08:55:06;3.80;;;0.80;;
57335;SDS011;43171;50.994;18.204;2022-07-15T08:57:53;2.90;;;0.80;;
57335;SDS011;43171;50.994;18.204;2022-07-15T09:00:38;27.70;;;2.60;;
57335;SDS011;43171;50.994;18.204;2022-07-15T09:03:22;1.70;;;0.70;;
57335;SDS011;43171;50.994;18.204;2022-07-15T09:06:06;2.50;;;0.90;;
57335;SDS011;43171;50.994;18.204;2022-07-15T09:12:32;7.10;;;1.00;;
57335;SDS011;43171;50.994;18.204;2022-07-15T09:15:35;1.60;;;0.60;;
57335;SDS011;43171;50.994;18.204;2022-07-15T09:21:57;2.40;;;0.60;;
57335;SDS011;43171;50.994;18.204;2022-07-15T09:24:46;2.10;;;0.60;;
57335;SDS011;43171;50.994;18.204;2022-07-15T09:34:27;1.20;;;0.60;;
57335;SDS011;43171;50.994;18.204;2022-07-15T09:37:12;2.00;;;0.50;;
57335;SDS011;43171;50.994;18.204;2022-07-15T09:39:56;2.90;;;0.70;;
57335;SDS011;43171;50.994;18.204;2022-07-15T09:46:23;1.90;;;0.50;;
57335;SDS011;43171;50.994;18.204;2022-07-15T09:49:10;1.40;;;0.50;;
57335;SDS011;43171;50.994;18.204;2022-07-15T09:52:08;2.10;;;0.50;;
57335;SDS011;43171;50.994;18.204;2022-07-15T09:54:58;3.00;;;0.60;;
57335;SDS011;43171;50.994;18.204;2022-07-15T09:57:42;2.10;;;0.60;;
57335;SDS011;43171;50.994;18.204;2022-07-15T10:00:26;6.40;;;0.70;;
57335;SDS011;43171;50.994;18.204;2022-07-15T10:06:58;3.20;;;0.50;;
57335;SDS011;43171;50.994;18.204;2022-07-15T10:09:48;2.50;;;0.60;;
57335;SDS011;43171;50.994;18.204;2022-07-15T10:12:38;1.40;;;0.60;;
57335;SDS011;43171;50.994;18.204;2022-07-15T10:15:47;2.90;;;0.50;;
57335;SDS011;43171;50.994;18.204;2022-07-15T10:18:44;2.50;;;0.60;;
57335;SDS011;43171;50.994;18.204;2022-07-15T10:28:10;3.20;;;0.70;;
57335;SDS011;43171;50.994;18.204;2022-07-15T10:39:50;1.90;;;0.80;;
57335;SDS011;43171;50.994;18.204;2022-07-15T10:43:06;2.10;;;0.60;;
57335;SDS011;43171;50.994;18.204;2022-07-15T10:46:02;3.20;;;0.60;;
57335;SDS011;43171;50.994;18.204;2022-07-15T10:48:49;3.30;;;0.60;;
57335;SDS011;43171;50.994;18.204;2022-07-15T10:51:44;2.50;;;0.50;;
57335;SDS011;43171;50.994;18.204;2022-07-15T10:57:19;2.10;;;0.60;;
57335;SDS011;43171;50.994;18.204;2022-07-15T11:00:05;2.20;;;0.70;;
57335;SDS011;43171;50.994;18.204;2022-07-15T11:06:07;3.40;;;0.70;;
57335;SDS011;43171;50.994;18.204;2022-07-15T11:08:52;2.80;;;0.70;;
57335;SDS011;43171;50.994;18.204;2022-07-15T11:14:42;1.90;;;0.60;;
57335;SDS011;43171;50.994;18.204;2022-07-15T11:17:41;2.50;;;0.60;;
57335;SDS011;43171;50.994;18.204;2022-07-15T11:20:45;3.30;;;0.70;;
57335;SDS011;43171;50.994;18.204;2022-07-15T11:23:46;1.90;;;0.60;;
57335;SDS011;43171;50.994;18.204;2022-07-15T11:26:45;3.00;;;0.70;;
57335;SDS011;43171;50.994;18.204;2022-07-15T11:29:53;1.80;;;0.60;;
57335;SDS011;43171;50.994;18.204;2022-07-15T11:32:43;1.80;;;0.50;;
57335;SDS011;43171;50.994;18.204;2022-07-15T11:35:28;1.90;;;0.60;;
57335;SDS011;43171;50.994;18.204;2022-07-15T11:38:14;4.00;;;0.80;;
57335;SDS011;43171;50.994;18.204;2022-07-15T11:44:44;1.50;;;0.70;;
57335;SDS011;43171;50.994;18.204;2022-07-15T11:47:58;3.60;;;0.70;;
57335;SDS011;43171;50.994;18.204;2022-07-15T11:54:01;2.90;;;0.80;;
57335;SDS011;43171;50.994;18.204;2022-07-15T11:57:01;3.10;;;0.60;;
57335;SDS011;43171;50.994;18.204;2022-07-15T12:00:11;1.40;;;0.60;;
57335;SDS011;43171;50.994;18.204;2022-07-15T12:03:08;1.70;;;0.60;;
57335;SDS011;43171;50.994;18.204;2022-07-15T12:09:08;3.50;;;0.50;;
57335;SDS011;43171;50.994;18.204;2022-07-15T12:11:55;1.60;;;0.70;;
57335;SDS011;43171;50.994;18.204;2022-07-15T12:14:46;2.40;;;0.70;;
57335;SDS011;43171;50.994;18.204;2022-07-15T12:17:32;2.60;;;0.70;;
57335;SDS011;43171;50.994;18.204;2022-07-15T12:20:57;2.20;;;0.50;;
57335;SDS011;43171;50.994;18.204;2022-07-15T12:27:38;1.40;;;0.50;;
57335;SDS011;43171;50.994;18.204;2022-07-15T12:30:29;3.10;;;0.60;;
57335;SDS011;43171;50.994;18.204;2022-07-15T12:33:22;3.30;;;0.70;;
57335;SDS011;43171;50.994;18.204;2022-07-15T12:36:17;2.50;;;0.80;;
57335;SDS011;43171;50.994;18.204;2022-07-15T12:39:13;1.90;;;0.70;;
57335;SDS011;43171;50.994;18.204;2022-07-15T12:42:07;3.30;;;0.70;;
57335;SDS011;43171;50.994;18.204;2022-07-15T12:48:13;2.70;;;0.70;;
57335;SDS011;43171;50.994;18.204;2022-07-15T12:51:04;2.50;;;0.70;;
57335;SDS011;43171;50.994;18.204;2022-07-15T12:53:48;2.70;;;0.70;;
57335;SDS011;43171;50.994;18.204;2022-07-15T12:56:51;2.40;;;0.70;;
57335;SDS011;43171;50.994;18.204;2022-07-15T12:59:49;2.50;;;0.60;;
57335;SDS011;43171;50.994;18.204;2022-07-15T13:02:54;1.70;;;0.70;;
57335;SDS011;43171;50.994;18.204;2022-07-15T13:08:28;4.00;;;0.90;;
57335;SDS011;43171;50.994;18.204;2022-07-15T13:11:13;2.00;;;0.70;;
57335;SDS011;43171;50.994;18.204;2022-07-15T13:13:58;2.50;;;0.80;;
57335;SDS011;43171;50.994;18.204;2022-07-15T13:16:42;2.00;;;0.70;;
57335;SDS011;43171;50.994;18.204;2022-07-15T13:19:26;3.80;;;0.90;;
57335;SDS011;43171;50.994;18.204;2022-07-15T13:22:13;1.00;;;0.70;;
57335;SDS011;43171;50.994;18.204;2022-07-15T13:24:58;3.00;;;0.80;;
57335;SDS011;43171;50.994;18.204;2022-07-15T13:27:45;3.50;;;0.90;;
57335;SDS011;43171;50.994;18.204;2022-07-15T13:30:29;1.90;;;0.70;;
57335;SDS011;43171;50.994;18.204;2022-07-15T13:33:17;2.70;;;0.80;;
57335;SDS011;43171;50.994;18.204;2022-07-15T13:36:01;3.30;;;0.80;;
57335;SDS011;43171;50.994;18.204;2022-07-15T13:38:54;3.20;;;0.80;;
57335;SDS011;43171;50.994;18.204;2022-07-15T13:41:38;2.60;;;0.70;;
57335;SDS011;43171;50.994;18.204;2022-07-15T13:44:22;3.60;;;0.80;;
57335;SDS011;43171;50.994;18.204;2022-07-15T13:47:08;2.70;;;0.70;;
57335;SDS011;43171;50.994;18.204;2022-07-15T13:49:53;3.50;;;0.70;;
57335;SDS011;43171;50.994;18.204;2022-07-15T13:52:57;2.60;;;0.80;;
57335;SDS011;43171;50.994;18.204;2022-07-15T13:55:41;3.90;;;0.80;;
57335;SDS011;43171;50.994;18.204;2022-07-15T13:58:26;4.10;;;0.90;;
57335;SDS011;43171;50.994;18.204;2022-07-15T14:01:22;1.90;;;0.90;;
57335;SDS011;43171;50.994;18.204;2022-07-15T14:04:06;2.60;;;1.10;;
57335;SDS011;43171;50.994;18.204;2022-07-15T14:06:50;2.50;;;0.70;;
57335;SDS011;43171;50.994;18.204;2022-07-15T14:09:34;6.30;;;0.90;;
57335;SDS011;43171;50.994;18.204;2022-07-15T14:12:20;2.90;;;0.90;;
57335;SDS011;43171;50.994;18.204;2022-07-15T14:15:04;2.60;;;0.70;;
57335;SDS011;43171;50.994;18.204;2022-07-15T14:17:58;2.40;;;0.80;;
57335;SDS011;43171;50.994;18.204;2022-07-15T14:20:42;3.40;;;0.90;;
57335;SDS011;43171;50.994;18.204;2022-07-15T14:23:30;2.80;;;0.80;;
57335;SDS011;43171;50.994;18.204;2022-07-15T14:26:22;3.90;;;0.90;;
57335;SDS011;43171;50.994;18.204;2022-07-15T14:29:08;2.70;;;0.90;;
57335;SDS011;43171;50.994;18.204;2022-07-15T14:31:54;2.90;;;0.70;;
57335;SDS011;43171;50.994;18.204;2022-07-15T14:34:41;3.40;;;0.80;;
57335;SDS011;43171;50.994;18.204;2022-07-15T14:37:40;4.80;;;0.90;;
57335;SDS011;43171;50.994;18.204;2022-07-15T14:40:25;3.30;;;0.80;;
57335;SDS011;43171;50.994;18.204;2022-07-15T14:43:09;3.80;;;1.00;;
57335;SDS011;43171;50.994;18.204;2022-07-15T14:45:54;2.70;;;0.90;;
57335;SDS011;43171;50.994;18.204;2022-07-15T14:48:38;3.10;;;1.60;;
57335;SDS011;43171;50.994;18.204;2022-07-15T14:51:22;3.60;;;2.20;;
57335;SDS011;43171;50.994;18.204;2022-07-15T14:54:09;10.10;;;7.50;;
57335;SDS011;43171;50.994;18.204;2022-07-15T14:57:00;13.00;;;10.50;;
57335;SDS011;43171;50.994;18.204;2022-07-15T14:59:44;13.50;;;11.80;;
57335;SDS011;43171;50.994;18.204;2022-07-15T15:02:28;12.80;;;11.40;;
57335;SDS011;43171;50.994;18.204;2022-07-15T15:05:18;11.80;;;9.60;;
57335;SDS011;43171;50.994;18.204;2022-07-15T15:08:02;13.40;;;8.70;;
57335;SDS011;43171;50.994;18.204;2022-07-15T15:10:53;7.70;;;6.70;;
57335;SDS011;43171;50.994;18.204;2022-07-15T15:13:44;7.60;;;5.10;;
57335;SDS011;43171;50.994;18.204;2022-07-15T15:16:28;9.30;;;5.70;;
57335;SDS011;43171;50.994;18.204;2022-07-15T15:22:53;3.00;;;1.00;;
57335;SDS011;43171;50.994;18.204;2022-07-15T15:25:53;2.90;;;0.90;;
57335;SDS011;43171;50.994;18.204;2022-07-15T15:28:56;2.80;;;0.90;;
57335;SDS011;43171;50.994;18.204;2022-07-15T15:31:46;4.20;;;1.00;;
57335;SDS011;43171;50.994;18.204;2022-07-15T15:34:32;3.50;;;0.90;;
57335;SDS011;43171;50.994;18.204;2022-07-15T15:37:16;2.30;;;0.80;;
57335;SDS011;43171;50.994;18.204;2022-07-15T15:40:00;5.50;;;1.30;;
57335;SDS011;43171;50.994;18.204;2022-07-15T15:42:54;2.10;;;0.70;;
57335;SDS011;43171;50.994;18.204;2022-07-15T15:45:38;2.70;;;0.90;;
57335;SDS011;43171;50.994;18.204;2022-07-15T15:48:22;2.20;;;1.00;;
57335;SDS011;43171;50.994;18.204;2022-07-15T15:51:10;3.90;;;0.90;;
57335;SDS011;43171;50.994;18.204;2022-07-15T15:57:12;2.60;;;0.90;;
57335;SDS011;43171;50.994;18.204;2022-07-15T15:59:56;2.20;;;1.10;;
57335;SDS011;43171;50.994;18.204;2022-07-15T16:02:57;3.70;;;0.90;;
57335;SDS011;43171;50.994;18.204;2022-07-15T16:05:41;2.90;;;0.90;;
57335;SDS011;43171;50.994;18.204;2022-07-15T16:08:33;3.50;;;1.30;;
57335;SDS011;43171;50.994;18.204;2022-07-15T16:11:17;2.20;;;1.00;;
57335;SDS011;43171;50.994;18.204;2022-07-15T16:14:02;3.60;;;1.30;;
57335;SDS011;43171;50.994;18.204;2022-07-15T16:16:46;4.40;;;1.20;;
57335;SDS011;43171;50.994;18.204;2022-07-15T16:19:36;4.50;;;1.20;;
57335;SDS011;43171;50.994;18.204;2022-07-15T16:22:36;6.10;;;1.10;;
57335;SDS011;43171;50.994;18.204;2022-07-15T16:25:39;4.60;;;1.20;;
57335;SDS011;43171;50.994;18.204;2022-07-15T16:28:23;5.00;;;1.20;;
57335;SDS011;43171;50.994;18.204;2022-07-15T16:31:07;2.90;;;1.00;;
57335;SDS011;43171;50.994;18.204;2022-07-15T16:33:51;2.90;;;0.90;;
57335;SDS011;43171;50.994;18.204;2022-07-15T16:43:01;3.30;;;0.90;;
57335;SDS011;43171;50.994;18.204;2022-07-15T16:45:45;3.10;;;1.20;;
57335;SDS011;43171;50.994;18.204;2022-07-15T16:48:29;2.90;;;1.00;;
57335;SDS011;43171;50.994;18.204;2022-07-15T16:51:13;3.00;;;1.50;;
57335;SDS011;43171;50.994;18.204;2022-07-15T16:54:07;5.20;;;1.70;;
57335;SDS011;43171;50.994;18.204;2022-07-15T16:56:52;3.30;;;1.30;;
57335;SDS011;43171;50.994;18.204;2022-07-15T16:59:41;3.40;;;0.90;;
57335;SDS011;43171;50.994;18.204;2022-07-15T17:03:37;2.90;;;1.10;;
57335;SDS011;43171;50.994;18.204;2022-07-15T17:06:30;3.30;;;1.20;;
57335;SDS011;43171;50.994;18.204;2022-07-15T17:15:43;4.30;;;1.20;;
57335;SDS011;43171;50.994;18.204;2022-07-15T17:18:31;2.70;;;1.10;;
57335;SDS011;43171;50.994;18.204;2022-07-15T17:21:41;2.60;;;1.10;;
57335;SDS011;43171;50.994;18.204;2022-07-15T17:24:25;3.20;;;1.00;;
57335;SDS011;43171;50.994;18.204;2022-07-15T17:27:09;3.20;;;1.00;;
57335;SDS011;43171;50.994;18.204;2022-07-15T17:47:15;2.20;;;1.10;;
57335;SDS011;43171;50.994;18.204;2022-07-15T17:53:40;2.50;;;1.20;;
57335;SDS011;43171;50.994;18.204;2022-07-15T17:56:24;4.60;;;1.20;;
57335;SDS011;43171;50.994;18.204;2022-07-15T17:59:08;4.50;;;1.10;;
57335;SDS011;43171;50.994;18.204;2022-07-15T18:01:53;2.30;;;1.00;;
57335;SDS011;43171;50.994;18.204;2022-07-15T18:04:37;3.10;;;0.80;;
57335;SDS011;43171;50.994;18.204;2022-07-15T18:07:21;4.00;;;1.10;;
57335;SDS011;43171;50.994;18.204;2022-07-15T18:10:06;3.50;;;1.30;;
57335;SDS011;43171;50.994;18.204;2022-07-15T18:12:50;3.80;;;1.90;;
57335;SDS011;43171;50.994;18.204;2022-07-15T18:15:34;7.70;;;4.30;;
57335;SDS011;43171;50.994;18.204;2022-07-15T18:18:18;4.10;;;1.60;;
57335;SDS011;43171;50.994;18.204;2022-07-15T18:21:02;3.00;;;0.90;;
57335;SDS011;43171;50.994;18.204;2022-07-15T18:23:49;2.90;;;1.30;;
57335;SDS011;43171;50.994;18.204;2022-07-15T18:26:34;3.90;;;1.30;;
57335;SDS011;43171;50.994;18.204;2022-07-15T18:29:18;4.30;;;1.50;;
57335;SDS011;43171;50.994;18.204;2022-07-15T18:32:03;4.10;;;1.80;;
57335;SDS011;43171;50.994;18.204;2022-07-15T18:34:47;4.20;;;1.80;;
57335;SDS011;43171;50.994;18.204;2022-07-15T18:37:31;4.10;;;1.40;;
57335;SDS011;43171;50.994;18.204;2022-07-15T18:40:15;3.30;;;1.50;;
57335;SDS011;43171;50.994;18.204;2022-07-15T18:42:59;4.60;;;1.20;;
57335;SDS011;43171;50.994;18.204;2022-07-15T18:45:43;5.90;;;1.00;;
57335;SDS011;43171;50.994;18.204;2022-07-15T18:48:28;4.10;;;1.60;;
57335;SDS011;43171;50.994;18.204;2022-07-15T18:51:12;4.00;;;1.50;;
57335;SDS011;43171;50.994;18.204;2022-07-15T18:53:56;5.50;;;1.70;;
57335;SDS011;43171;50.994;18.204;2022-07-15T18:56:40;3.70;;;1.60;;
57335;SDS011;43171;50.994;18.204;2022-07-15T18:59:25;5.00;;;1.60;;
57335;SDS011;43171;50.994;18.204;2022-07-15T19:02:09;3.60;;;1.40;;
57335;SDS011;43171;50.994;18.204;2022-07-15T19:04:53;4.00;;;1.40;;
57335;SDS011;43171;50.994;18.204;2022-07-15T19:07:37;4.10;;;1.30;;
57335;SDS011;43171;50.994;18.204;2022-07-15T19:10:21;5.50;;;1.60;;
57335;SDS011;43171;50.994;18.204;2022-07-15T19:13:06;4.20;;;1.60;;
57335;SDS011;43171;50.994;18.204;2022-07-15T19:15:50;4.70;;;1.50;;
57335;SDS011;43171;50.994;18.204;2022-07-15T19:18:34;5.40;;;1.50;;
57335;SDS011;43171;50.994;18.204;2022-07-15T19:21:18;5.20;;;2.00;;
57335;SDS011;43171;50.994;18.204;2022-07-15T19:24:03;3.80;;;2.00;;
57335;SDS011;43171;50.994;18.204;2022-07-15T19:26:47;3.40;;;1.60;;
57335;SDS011;43171;50.994;18.204;2022-07-15T19:29:31;3.40;;;1.30;;
57335;SDS011;43171;50.994;18.204;2022-07-15T19:32:17;4.40;;;1.40;;
57335;SDS011;43171;50.994;18.204;2022-07-15T19:35:02;3.20;;;1.40;;
57335;SDS011;43171;50.994;18.204;2022-07-15T19:37:49;2.40;;;1.30;;
57335;SDS011;43171;50.994;18.204;2022-07-15T19:40:33;6.00;;;1.70;;
57335;SDS011;43171;50.994;18.204;2022-07-15T19:43:17;3.60;;;1.60;;
57335;SDS011;43171;50.994;18.204;2022-07-15T19:46:02;4.90;;;2.00;;
57335;SDS011;43171;50.994;18.204;2022-07-15T19:48:46;5.20;;;1.60;;
57335;SDS011;43171;50.994;18.204;2022-07-15T19:51:30;5.40;;;2.00;;